This is the latest recevied weather packets stored in our database for station/object G6FJI-13. If no packets are shown the sender has not sent any weather packets the latest 10 day(s).
| Time | Temp. | Humidity | Pressure | Rain* | Wind** | Luminosity | Snow |
|---|---|---|---|---|---|---|---|
| 1777888883 | 11.67° C | 92% | 1017.9 hPa | 0 mm | - | 76 W/m² | - |
| 1777888327 | 11.67° C | 93% | 1017.9 hPa | 0 mm | - | 84 W/m² | - |
| 1777887149 | 11.11° C | 95% | 1018 hPa | 0 mm | - | 80 W/m² | - |
| 1777885929 | 11.11° C | 95% | 1017.8 hPa | 0 mm | - | 41 W/m² | - |
| 1777879933 | 10.56° C | 98% | 1017.1 hPa | 0 mm | - | 23 W/m² | - |
| 1777877535 | 10.56° C | 98% | 1016.6 hPa | 0 mm | - | 27 W/m² | - |
| 1777875143 | 11.11° C | 98% | 1016.2 hPa | 0 mm | - | 10 W/m² | - |
| 1777872602 | 11.11° C | 99% | 1015.9 hPa | 0 mm | - | 6 W/m² | - |
| 1777870856 | 11.11° C | 99% | 1015.5 hPa | 0 mm | - | 3 W/m² | - |
| 1777863546 | 11.11° C | 99% | 1015.4 hPa | 0 mm | - | 0 W/m² | - |
| 1777859303 | 11.67° C | 99% | 1015.2 hPa | 0 mm | - | 0 W/m² | - |
| 1777856905 | 11.67° C | 99% | 1015 hPa | 0 mm | - | 0 W/m² | - |
| 1777848495 | 11.67° C | 98% | 1014.5 hPa | 0 mm | - | 0 W/m² | - |
| 1777847316 | 11.67° C | 98% | 1014.4 hPa | 0 mm | - | 0 W/m² | - |
| 1777843698 | 11.67° C | 97% | 1014.1 hPa | 0.51 mm | - | 0 W/m² | - |
| 1777841855 | 11.67° C | 97% | 1013.6 hPa | 3.56 mm | - | 0 W/m² | - |
| 1777839457 | 13.89° C | 93% | 1013.4 hPa | 2.54 mm | - | 0 W/m² | - |
| 1777834044 | 16.11° C | 75% | 1012.1 hPa | 0 mm | - | 3 W/m² | - |
| 1777828604 | 16.67° C | 71% | 1011.9 hPa | 0 mm | - | 37 W/m² | - |
| 1777820154 | 16.67° C | 71% | 1012.3 hPa | 0 mm | - | 75 W/m² | - |
| 1777817736 | 18.33° C | 64% | 1012 hPa | 0 mm | - | 101 W/m² | - |
| 1777816537 | 17.78° C | 66% | 1012.2 hPa | 0 mm | - | 156 W/m² | - |
| 1777815338 | 17.22° C | 68% | 1012.1 hPa | 0 mm | - | 417 W/m² | - |
| 1777811740 | 17.22° C | 71% | 1012.6 hPa | 0 mm | - | 180 W/m² | - |
| 1777810573 | 17.78° C | 70% | 1012.5 hPa | 0 mm | - | 246 W/m² | - |
* Rain latest hour (hover to see other rain measurements)
** Current wind speed in m/s (hover to see current wind gust speed)